createdAt,value
2023-05-10T00:01:57.061Z,20.80
2023-05-10T00:04:23.518Z,22.27
2023-05-10T00:06:49.899Z,22.13
2023-05-10T00:09:16.342Z,22.17
2023-05-10T00:11:42.922Z,22.58
2023-05-10T00:14:09.334Z,21.85
2023-05-10T00:16:35.736Z,22.23
2023-05-10T00:19:02.243Z,23.10
2023-05-10T00:21:29.345Z,22.35
2023-05-10T00:23:56.116Z,21.90
2023-05-10T00:26:22.483Z,21.50
2023-05-10T00:28:48.867Z,23.52
2023-05-10T00:31:15.641Z,22.55
2023-05-10T00:33:42.010Z,23.08
2023-05-10T00:36:08.560Z,22.65
2023-05-10T00:38:35.014Z,23.40
2023-05-10T00:41:01.674Z,22.83
2023-05-10T00:43:28.070Z,23.15
2023-05-10T00:45:54.776Z,22.90
2023-05-10T00:48:21.273Z,21.48
2023-05-10T00:50:47.680Z,23.08
2023-05-10T00:53:14.167Z,21.52
2023-05-10T00:55:40.578Z,23.27
2023-05-10T00:58:07.093Z,21.90
2023-05-10T01:00:34.389Z,24.88
2023-05-10T01:03:01.619Z,24.25
2023-05-10T01:05:28.430Z,23.92
2023-05-10T01:07:54.815Z,24.58
2023-05-10T01:10:21.282Z,22.95
2023-05-10T01:12:48.322Z,23.23
2023-05-10T01:15:16.060Z,22.98
2023-05-10T01:17:44.857Z,24.67
2023-05-10T01:20:11.935Z,22.90
2023-05-10T01:23:03.451Z,24.67
2023-05-10T01:25:29.741Z,24.00
2023-05-10T01:28:14.794Z,25.08
2023-05-10T01:30:44.373Z,27.30
2023-05-10T01:33:29.155Z,28.63
2023-05-10T01:35:55.446Z,27.75
2023-05-10T01:38:36.939Z,28.38
2023-05-10T01:41:13.402Z,28.27
2023-05-10T01:43:57.324Z,28.15
2023-05-10T01:46:34.452Z,29.25
2023-05-10T01:49:01.782Z,28.17
2023-05-10T01:51:32.649Z,29.70
2023-05-10T01:54:02.827Z,28.15
2023-05-10T01:56:31.113Z,29.98
2023-05-10T01:58:58.159Z,29.80
2023-05-10T02:01:27.123Z,31.10
2023-05-10T02:03:55.175Z,29.95
2023-05-10T02:06:23.256Z,30.20
2023-05-10T02:08:50.941Z,29.70
2023-05-10T02:11:18.980Z,32.45
2023-05-10T02:13:46.046Z,29.90
2023-05-10T02:16:13.670Z,30.13
2023-05-10T02:18:42.295Z,29.75
2023-05-10T02:21:09.358Z,31.60
2023-05-10T02:23:36.862Z,30.67
2023-05-10T02:26:03.742Z,31.50
2023-05-10T02:28:30.680Z,30.95
2023-05-10T02:30:57.136Z,30.77
2023-05-10T02:33:23.605Z,30.23
2023-05-10T02:35:51.519Z,31.27
2023-05-10T02:38:20.423Z,32.60
2023-05-10T02:40:47.914Z,33.53
2023-05-10T02:43:15.619Z,33.80
2023-05-10T02:45:43.684Z,34.38
2023-05-10T02:48:10.428Z,34.30
2023-05-10T02:50:37.946Z,34.10
2023-05-10T02:53:12.549Z,33.65
2023-05-10T02:55:40.860Z,32.90
2023-05-10T02:58:07.283Z,34.47
2023-05-10T03:00:33.792Z,34.53
2023-05-10T03:03:00.314Z,34.53
2023-05-10T03:05:26.792Z,34.08
2023-05-10T03:07:53.701Z,34.20
2023-05-10T03:10:20.985Z,35.30
2023-05-10T03:13:02.516Z,33.80
2023-05-10T03:15:47.147Z,31.42
2023-05-10T03:18:23.418Z,34.30
2023-05-10T03:20:52.016Z,31.05
2023-05-10T03:23:21.037Z,34.45
2023-05-10T03:25:49.261Z,34.28
2023-05-10T03:28:16.676Z,33.95
2023-05-10T03:30:44.295Z,32.33
2023-05-10T03:33:11.687Z,34.92
2023-05-10T03:35:38.076Z,35.33
2023-05-10T03:38:04.484Z,35.60
2023-05-10T03:40:32.737Z,36.60
2023-05-10T03:42:59.993Z,37.35
2023-05-10T03:45:26.409Z,33.63
2023-05-10T03:47:52.861Z,36.08
2023-05-10T03:50:19.607Z,36.25
2023-05-10T03:52:46.237Z,32.05
2023-05-10T03:55:12.794Z,35.97
2023-05-10T03:57:39.451Z,33.03
2023-05-10T04:00:06.375Z,32.53
2023-05-10T04:02:32.984Z,33.95
2023-05-10T04:04:59.442Z,31.80
2023-05-10T04:07:25.801Z,29.52
2023-05-10T04:09:52.151Z,27.38
2023-05-10T04:12:18.532Z,26.02
2023-05-10T04:14:44.896Z,26.70
2023-05-10T04:17:11.569Z,23.35
2023-05-10T04:19:38.094Z,25.42
2023-05-10T04:22:04.514Z,25.17
2023-05-10T04:24:30.909Z,27.35
2023-05-10T04:26:57.972Z,24.85
2023-05-10T04:29:24.556Z,23.45
2023-05-10T04:31:51.886Z,23.25
2023-05-10T04:34:18.403Z,22.33
2023-05-10T04:36:44.815Z,18.73
2023-05-10T04:39:11.553Z,19.25
2023-05-10T04:41:39.307Z,20.60
2023-05-10T04:44:05.709Z,18.33
2023-05-10T04:46:32.194Z,19.92
2023-05-10T04:48:58.646Z,18.17
2023-05-10T04:51:25.025Z,16.35
2023-05-10T04:54:04.701Z,15.70
2023-05-10T04:56:32.737Z,16.50
2023-05-10T04:58:59.184Z,14.30
2023-05-10T05:01:25.634Z,13.75
2023-05-10T05:03:53.742Z,14.98
2023-05-10T05:06:21.812Z,15.38
2023-05-10T05:08:50.019Z,14.38
2023-05-10T05:11:16.444Z,13.02
2023-05-10T05:13:42.910Z,13.25
2023-05-10T05:16:09.380Z,12.50
2023-05-10T05:18:35.860Z,11.23
2023-05-10T05:21:02.281Z,12.23
2023-05-10T05:23:28.714Z,10.65
2023-05-10T05:25:55.303Z,10.55
2023-05-10T05:28:22.030Z,10.77
2023-05-10T05:30:48.410Z,10.60
2023-05-10T05:33:16.422Z,10.13
2023-05-10T05:35:45.572Z,10.25
2023-05-10T05:38:12.308Z,10.77
2023-05-10T05:40:38.744Z,10.65
2023-05-10T05:43:05.099Z,10.35
2023-05-10T05:45:31.463Z,11.20
2023-05-10T05:47:57.860Z,11.68
2023-05-10T05:50:24.275Z,10.73
2023-05-10T05:52:50.862Z,9.88
2023-05-10T05:55:17.624Z,10.00
2023-05-10T05:57:44.218Z,9.73
2023-05-10T06:00:11.292Z,9.77
2023-05-10T06:02:37.855Z,11.10
2023-05-10T06:05:04.669Z,11.57
2023-05-10T06:07:31.100Z,10.73
2023-05-10T06:09:57.510Z,10.65
2023-05-10T06:12:23.863Z,11.35
2023-05-10T06:14:50.215Z,11.68
2023-05-10T06:17:16.632Z,11.40
2023-05-10T06:19:42.994Z,9.68
2023-05-10T06:22:09.425Z,10.68
2023-05-10T06:24:35.953Z,10.82
2023-05-10T06:27:02.865Z,9.60
2023-05-10T06:29:29.286Z,10.38
2023-05-10T06:31:55.874Z,10.18
2023-05-10T06:34:22.435Z,11.07
2023-05-10T06:36:48.784Z,9.95
2023-05-10T06:39:15.197Z,9.85
2023-05-10T06:41:41.618Z,10.48
2023-05-10T06:44:07.991Z,10.40
2023-05-10T06:46:34.413Z,10.27
2023-05-10T06:49:00.857Z,10.60
2023-05-10T06:51:27.293Z,11.05
2023-05-10T06:53:53.871Z,10.73
2023-05-10T06:56:22.373Z,11.35
2023-05-10T06:58:49.482Z,10.93
2023-05-10T07:01:16.092Z,11.25
2023-05-10T07:03:42.568Z,10.20
2023-05-10T07:06:15.646Z,9.90
2023-05-10T07:08:48.423Z,10.70
2023-05-10T07:11:14.795Z,9.88
2023-05-10T07:13:44.979Z,10.10
2023-05-10T07:16:11.413Z,10.15
2023-05-10T07:18:37.931Z,10.20
2023-05-10T07:21:04.434Z,8.73
2023-05-10T07:23:30.950Z,8.75
2023-05-10T07:25:58.405Z,9.90
2023-05-10T07:28:27.870Z,9.45
2023-05-10T07:30:54.335Z,9.13
2023-05-10T07:33:21.271Z,9.10
2023-05-10T07:35:47.824Z,8.20
2023-05-10T07:38:14.270Z,8.00
2023-05-10T07:40:40.808Z,8.93
2023-05-10T07:43:07.375Z,8.77
2023-05-10T07:45:34.455Z,9.18
2023-05-10T07:48:01.180Z,8.80
2023-05-10T07:50:27.996Z,8.85
2023-05-10T07:52:54.535Z,7.97
2023-05-10T07:55:22.199Z,8.70
2023-05-10T07:57:48.721Z,7.72
2023-05-10T08:00:19.220Z,8.05
2023-05-10T08:02:45.988Z,7.93
2023-05-10T08:05:12.512Z,8.18
2023-05-10T08:07:38.917Z,8.02
2023-05-10T08:10:06.109Z,7.80
2023-05-10T08:12:32.519Z,7.80
2023-05-10T08:14:58.993Z,8.10
2023-05-10T08:17:25.673Z,8.13
2023-05-10T08:19:52.071Z,8.90
2023-05-10T08:22:18.503Z,9.20
2023-05-10T08:24:44.893Z,8.43
2023-05-10T08:27:11.298Z,7.93
2023-05-10T08:29:49.032Z,8.15
2023-05-10T08:34:42.605Z,7.93
2023-05-10T08:37:09.225Z,7.80
2023-05-10T08:39:36.404Z,8.55
2023-05-10T08:42:05.296Z,9.70
2023-05-10T08:44:36.618Z,9.18
2023-05-10T08:47:07.974Z,9.05
2023-05-10T08:49:34.729Z,8.52
2023-05-10T08:52:04.562Z,7.95
2023-05-10T08:54:32.809Z,8.20
2023-05-10T08:56:59.400Z,8.10
2023-05-10T08:59:25.912Z,8.40
2023-05-10T09:01:55.124Z,9.38
2023-05-10T09:04:22.234Z,8.70
2023-05-10T09:06:48.756Z,10.07
2023-05-10T09:09:15.725Z,11.27
2023-05-10T09:11:42.135Z,11.07
2023-05-10T09:14:10.416Z,9.30
2023-05-10T09:16:36.885Z,9.25
2023-05-10T09:19:03.877Z,11.20
2023-05-10T09:21:32.112Z,10.60
2023-05-10T09:24:04.254Z,10.27
2023-05-10T09:26:30.634Z,10.30
2023-05-10T09:28:58.587Z,9.98
2023-05-10T09:31:26.757Z,9.57
2023-05-10T09:33:54.896Z,10.35
2023-05-10T09:36:21.295Z,9.63
2023-05-10T09:38:55.723Z,11.73
2023-05-10T09:41:23.234Z,12.02
2023-05-10T09:43:50.520Z,10.55
2023-05-10T09:46:17.197Z,10.38
2023-05-10T09:48:45.788Z,10.82
2023-05-10T09:51:20.013Z,11.48
2023-05-10T09:53:46.842Z,12.25
2023-05-10T09:56:13.223Z,11.52
2023-05-10T09:58:40.080Z,12.85
2023-05-10T10:01:12.121Z,12.52
2023-05-10T10:03:43.219Z,12.38
2023-05-10T10:06:18.857Z,13.32
2023-05-10T10:08:49.209Z,12.25
2023-05-10T10:11:15.725Z,12.05
2023-05-10T10:13:42.122Z,11.43
2023-05-10T10:16:09.627Z,12.80
2023-05-10T10:18:39.710Z,11.73
2023-05-10T10:21:11.891Z,10.07
2023-05-10T10:23:38.317Z,11.02
2023-05-10T10:26:05.493Z,9.68
2023-05-10T10:28:52.856Z,9.55
2023-05-10T10:31:40.274Z,8.32
2023-05-10T10:34:08.054Z,8.98
2023-05-10T10:36:41.532Z,8.90
2023-05-10T10:39:10.540Z,8.80
2023-05-10T10:41:39.089Z,8.90
2023-05-10T10:44:26.848Z,9.02
2023-05-10T10:47:06.659Z,8.55
2023-05-10T10:49:36.908Z,9.50
2023-05-10T10:52:29.301Z,8.48
2023-05-10T10:55:10.163Z,7.80
2023-05-10T10:57:42.392Z,8.27
2023-05-10T11:00:22.203Z,9.25
2023-05-10T11:02:52.432Z,6.78
2023-05-10T11:05:34.913Z,7.47
2023-05-10T11:08:02.624Z,7.80
2023-05-10T11:10:29.775Z,7.22
2023-05-10T11:13:09.936Z,8.30
2023-05-10T11:15:40.349Z,7.55
2023-05-10T11:18:25.445Z,7.28
2023-05-10T11:20:53.312Z,7.80
2023-05-10T11:23:20.638Z,6.75
2023-05-10T11:25:47.058Z,6.40
2023-05-10T11:28:14.101Z,6.40
2023-05-10T11:30:41.501Z,6.70
2023-05-10T11:33:09.109Z,6.97
2023-05-10T11:35:43.012Z,7.05
2023-05-10T11:38:11.243Z,6.10
2023-05-10T11:40:38.505Z,6.07
2023-05-10T11:43:05.319Z,6.10
2023-05-10T11:45:35.506Z,5.97
2023-05-10T11:48:02.508Z,6.45
2023-05-10T11:50:29.147Z,7.82
2023-05-10T11:52:59.721Z,7.10
2023-05-10T11:55:26.180Z,7.45
2023-05-10T11:57:53.895Z,7.50
2023-05-10T12:00:20.821Z,6.72
2023-05-10T12:02:47.754Z,7.25
2023-05-10T12:05:14.324Z,8.05
2023-05-10T12:07:40.755Z,7.72
2023-05-10T12:10:09.141Z,8.43
2023-05-10T12:12:45.880Z,8.18
2023-05-10T12:15:25.385Z,8.85
2023-05-10T12:17:52.375Z,8.65
2023-05-10T12:20:25.360Z,8.55
2023-05-10T12:22:54.006Z,8.05
2023-05-10T12:25:21.752Z,9.10
2023-05-10T12:27:49.993Z,9.27
2023-05-10T12:30:20.904Z,9.77
2023-05-10T12:32:47.296Z,9.55
2023-05-10T12:35:13.744Z,10.10
2023-05-10T12:37:40.176Z,10.50
2023-05-10T12:40:09.038Z,6.82
2023-05-10T12:42:36.900Z,6.72
2023-05-10T12:45:04.701Z,6.82
2023-05-10T12:47:31.240Z,5.40
2023-05-10T12:49:57.710Z,5.13
2023-05-10T12:52:24.897Z,5.03
2023-05-10T12:54:51.347Z,4.97
2023-05-10T12:57:18.205Z,4.88
2023-05-10T12:59:44.581Z,5.50
2023-05-10T13:02:11.216Z,6.40
2023-05-10T13:04:40.652Z,6.43
2023-05-10T13:07:10.378Z,5.50
2023-05-10T13:09:36.969Z,6.45
2023-05-10T13:12:03.516Z,6.55
2023-05-10T13:14:30.228Z,6.03
2023-05-10T13:16:56.665Z,5.97
2023-05-10T13:19:23.157Z,7.18
2023-05-10T13:21:49.533Z,7.03
2023-05-10T13:24:16.043Z,8.20
2023-05-10T13:26:42.478Z,7.22
2023-05-10T13:29:09.013Z,8.55
2023-05-10T13:31:35.807Z,7.90
2023-05-10T13:34:03.312Z,7.82
2023-05-10T13:36:29.765Z,7.68
2023-05-10T13:38:56.342Z,7.70
2023-05-10T13:41:22.886Z,7.72
2023-05-10T13:43:50.184Z,8.38
2023-05-10T13:46:16.656Z,8.45
2023-05-10T13:48:43.100Z,8.77
2023-05-10T13:51:09.465Z,7.85
2023-05-10T13:53:35.841Z,8.80
2023-05-10T13:56:03.711Z,8.10
2023-05-10T13:58:30.067Z,7.80
2023-05-10T14:00:56.813Z,8.82
2023-05-10T14:03:23.248Z,8.93
2023-05-10T14:05:49.812Z,8.13
2023-05-10T14:08:16.672Z,7.35
2023-05-10T14:10:43.046Z,8.15
2023-05-10T14:13:09.445Z,6.85
2023-05-10T14:15:35.801Z,7.13
2023-05-10T14:18:02.589Z,6.25
2023-05-10T14:20:29.225Z,6.38
2023-05-10T14:22:55.636Z,8.02
2023-05-10T14:25:22.004Z,7.13
2023-05-10T14:27:48.792Z,6.75
2023-05-10T14:30:15.853Z,6.93
2023-05-10T14:32:42.399Z,7.22
2023-05-10T14:35:11.449Z,7.22
2023-05-10T14:37:39.394Z,7.03
2023-05-10T14:40:07.420Z,4.65
2023-05-10T14:42:33.843Z,4.80
2023-05-10T14:45:00.287Z,4.72
2023-05-10T14:47:26.704Z,4.80
2023-05-10T14:49:53.083Z,4.85
2023-05-10T14:52:19.449Z,6.82
2023-05-10T14:54:46.059Z,8.55
2023-05-10T14:57:12.433Z,10.88
2023-05-10T14:59:38.801Z,9.45
2023-05-10T15:02:05.753Z,9.32
2023-05-10T15:04:32.703Z,9.02
2023-05-10T15:07:00.437Z,8.13
2023-05-10T15:09:28.403Z,9.05
2023-05-10T15:11:55.466Z,8.30
2023-05-10T15:14:21.837Z,8.50
2023-05-10T15:16:48.210Z,8.88
2023-05-10T15:19:14.585Z,7.82
2023-05-10T15:21:43.350Z,7.18
2023-05-10T15:24:10.538Z,7.63
2023-05-10T15:26:36.925Z,8.30
2023-05-10T15:29:03.338Z,8.10
2023-05-10T15:31:29.809Z,7.10
2023-05-10T15:34:02.044Z,6.97
2023-05-10T15:36:28.396Z,10.02
2023-05-10T15:38:55.607Z,8.52
2023-05-10T15:41:21.999Z,8.23
2023-05-10T15:43:48.353Z,7.63
2023-05-10T15:46:14.727Z,6.47
2023-05-10T15:48:41.122Z,6.47
2023-05-10T15:51:07.494Z,5.57
2023-05-10T15:53:34.037Z,4.63
2023-05-10T15:56:00.413Z,4.72
2023-05-10T15:58:26.839Z,4.57
2023-05-10T16:00:53.345Z,4.88
2023-05-10T16:03:19.813Z,3.92
2023-05-10T16:05:46.577Z,2.78
2023-05-10T16:08:13.145Z,3.70
2023-05-10T16:10:39.616Z,3.45
2023-05-10T16:13:06.257Z,3.08
2023-05-10T16:15:32.719Z,3.47
2023-05-10T16:17:59.303Z,3.00
2023-05-10T16:20:26.668Z,2.85
2023-05-10T16:22:53.063Z,2.78
2023-05-10T16:25:19.750Z,3.28
2023-05-10T16:27:46.382Z,3.13
2023-05-10T16:30:12.958Z,3.08
2023-05-10T16:32:39.418Z,3.08
2023-05-10T16:35:06.383Z,3.40
2023-05-10T16:37:32.941Z,3.10
2023-05-10T16:39:59.675Z,3.30
2023-05-10T16:42:27.988Z,3.13
2023-05-10T16:44:54.715Z,3.47
2023-05-10T16:47:21.209Z,3.00
2023-05-10T16:49:47.602Z,3.65
2023-05-10T16:52:14.066Z,3.90
2023-05-10T16:54:40.529Z,4.38
2023-05-10T16:57:08.424Z,4.07
2023-05-10T16:59:34.857Z,3.58
2023-05-10T17:02:01.313Z,4.45
2023-05-10T17:04:28.634Z,4.05
2023-05-10T17:06:55.054Z,4.28
2023-05-10T17:09:21.520Z,4.22
2023-05-10T17:11:47.875Z,3.90
2023-05-10T17:14:14.297Z,3.45
2023-05-10T17:16:41.818Z,2.92
2023-05-10T17:19:08.855Z,2.67
2023-05-10T17:21:35.391Z,3.25
2023-05-10T17:24:01.787Z,3.45
2023-05-10T17:26:29.876Z,4.20
2023-05-10T17:28:56.247Z,5.18
2023-05-10T17:31:22.687Z,4.50
2023-05-10T17:33:49.189Z,5.28
2023-05-10T17:36:15.647Z,4.63
2023-05-10T17:38:43.375Z,5.82
2023-05-10T17:41:09.802Z,4.82
2023-05-10T17:43:36.476Z,5.25
2023-05-10T17:46:03.544Z,4.90
2023-05-10T17:48:29.992Z,4.57
2023-05-10T17:50:56.553Z,5.15
2023-05-10T17:53:22.998Z,5.63
2023-05-10T17:55:51.534Z,4.32
2023-05-10T17:58:17.936Z,4.18
2023-05-10T18:00:44.739Z,4.43
2023-05-10T18:03:11.314Z,3.83
2023-05-10T18:05:38.829Z,3.80
2023-05-10T18:08:05.602Z,2.97
2023-05-10T18:10:32.293Z,3.47
2023-05-10T18:12:58.735Z,2.75
2023-05-10T18:15:25.483Z,2.42
2023-05-10T18:17:51.918Z,2.72
2023-05-10T18:20:18.623Z,2.60
2023-05-10T18:22:45.087Z,3.20
2023-05-10T18:25:11.518Z,2.90
2023-05-10T18:27:38.282Z,3.30
2023-05-10T18:30:06.224Z,3.33
2023-05-10T18:32:32.652Z,3.47
2023-05-10T18:34:59.106Z,3.60
2023-05-10T18:37:25.554Z,3.75
2023-05-10T18:39:51.991Z,3.70
2023-05-10T18:42:18.384Z,4.00
2023-05-10T18:44:44.949Z,4.43
2023-05-10T18:47:11.652Z,4.32
2023-05-10T18:49:38.792Z,5.03
2023-05-10T18:52:05.207Z,5.97
2023-05-10T18:54:31.654Z,5.35
2023-05-10T18:56:58.674Z,6.50
2023-05-10T18:59:25.585Z,6.38
2023-05-10T19:01:53.146Z,6.10
2023-05-10T19:04:21.036Z,6.03
2023-05-10T19:06:47.734Z,6.22
2023-05-10T19:09:14.185Z,5.78
2023-05-10T19:11:41.046Z,6.57
2023-05-10T19:14:07.453Z,7.00
2023-05-10T19:16:35.912Z,7.03
2023-05-10T19:19:03.032Z,5.95
2023-05-10T19:21:31.944Z,6.07
2023-05-10T19:23:58.784Z,7.47
2023-05-10T19:26:25.270Z,6.50
2023-05-10T19:28:52.420Z,5.65
2023-05-10T19:31:19.426Z,5.97
2023-05-10T19:33:46.848Z,6.20
2023-05-10T19:36:13.486Z,6.20
2023-05-10T19:38:40.003Z,5.75
2023-05-10T19:41:07.768Z,6.63
2023-05-10T19:43:36.503Z,6.20
2023-05-10T19:46:02.899Z,6.15
2023-05-10T19:48:29.890Z,6.15
2023-05-10T19:51:00.797Z,5.72
2023-05-10T19:53:27.645Z,5.10
2023-05-10T19:55:54.394Z,6.03
2023-05-10T19:58:20.856Z,6.80
2023-05-10T20:00:47.255Z,6.03
2023-05-10T20:03:13.661Z,6.60
2023-05-10T20:05:40.271Z,6.57
2023-05-10T20:08:06.738Z,6.40
2023-05-10T20:10:33.188Z,6.47
2023-05-10T20:13:00.403Z,6.32
2023-05-10T20:15:29.541Z,6.57
2023-05-10T20:17:56.115Z,6.63
2023-05-10T20:20:22.875Z,6.35
2023-05-10T20:22:49.942Z,6.47
2023-05-10T20:25:17.312Z,6.22
2023-05-10T20:27:44.060Z,6.40
2023-05-10T20:30:11.353Z,6.72
2023-05-10T20:32:38.332Z,6.68
2023-05-10T20:35:09.617Z,8.02
2023-05-10T20:37:37.855Z,8.50
2023-05-10T20:40:05.964Z,9.50
2023-05-10T20:42:32.492Z,9.15
2023-05-10T20:44:58.925Z,10.32
2023-05-10T20:47:25.452Z,9.40
2023-05-10T20:49:51.968Z,9.65
2023-05-10T20:52:18.435Z,9.75
2023-05-10T20:54:44.913Z,9.77
2023-05-10T20:57:14.474Z,10.73
2023-05-10T20:59:41.205Z,9.93
2023-05-10T21:02:08.076Z,10.40
2023-05-10T21:04:35.025Z,10.75
2023-05-10T21:07:01.542Z,10.82
2023-05-10T21:09:27.941Z,11.38
2023-05-10T21:11:54.374Z,11.50
2023-05-10T21:14:20.765Z,11.93
2023-05-10T21:16:47.195Z,11.15
2023-05-10T21:19:13.644Z,10.88
2023-05-10T21:21:40.106Z,11.35
2023-05-10T21:24:07.149Z,10.98
2023-05-10T21:26:33.654Z,12.02
2023-05-10T21:29:00.084Z,11.15
2023-05-10T21:31:26.559Z,11.15
2023-05-10T21:33:53.005Z,11.00
2023-05-10T21:36:19.513Z,10.73
2023-05-10T21:38:46.677Z,11.68
2023-05-10T21:41:13.115Z,12.18
2023-05-10T21:43:39.551Z,12.02
2023-05-10T21:46:07.093Z,11.70
2023-05-10T21:48:33.669Z,12.23
2023-05-10T21:51:01.460Z,10.57
2023-05-10T21:53:28.548Z,10.32
2023-05-10T21:55:57.850Z,10.35
2023-05-10T21:58:24.292Z,9.93
2023-05-10T22:00:50.890Z,10.15
2023-05-10T22:03:18.266Z,9.68
2023-05-10T22:05:44.728Z,9.48
2023-05-10T22:08:11.141Z,9.50
2023-05-10T22:10:37.560Z,9.57
2023-05-10T22:13:03.967Z,10.50
2023-05-10T22:15:34.217Z,10.20
2023-05-10T22:18:02.048Z,10.57
2023-05-10T22:20:28.495Z,9.55
2023-05-10T22:22:55.643Z,9.25
2023-05-10T22:25:22.225Z,8.77
2023-05-10T22:27:48.778Z,8.88
2023-05-10T22:30:15.393Z,9.27
2023-05-10T22:32:41.968Z,9.23
2023-05-10T22:35:08.675Z,8.43
2023-05-10T22:37:35.007Z,8.68
2023-05-10T22:40:01.377Z,9.77
2023-05-10T22:42:27.781Z,9.50
2023-05-10T22:44:54.198Z,9.60
2023-05-10T22:47:20.604Z,9.70
2023-05-10T22:49:47.095Z,10.80
2023-05-10T22:52:13.522Z,9.88
2023-05-10T22:54:39.861Z,10.70
2023-05-10T22:57:06.913Z,10.90
2023-05-10T22:59:33.561Z,10.45
2023-05-10T23:02:00.031Z,10.07
2023-05-10T23:04:26.581Z,10.65
2023-05-10T23:06:53.648Z,10.35
2023-05-10T23:09:20.081Z,9.65
2023-05-10T23:11:46.922Z,9.43
2023-05-10T23:14:13.333Z,7.28
2023-05-10T23:16:39.841Z,7.70
2023-05-10T23:19:07.114Z,7.22
2023-05-10T23:21:34.441Z,6.88
2023-05-10T23:24:00.953Z,6.25
2023-05-10T23:26:27.379Z,5.88
2023-05-10T23:28:53.760Z,6.43
2023-05-10T23:31:20.190Z,6.95
2023-05-10T23:33:46.621Z,6.18
2023-05-10T23:36:13.052Z,6.07
2023-05-10T23:38:39.521Z,5.93
2023-05-10T23:41:06.150Z,6.00
2023-05-10T23:43:32.532Z,6.18
2023-05-10T23:45:59.316Z,4.90
2023-05-10T23:48:25.849Z,5.00
2023-05-10T23:50:52.245Z,4.93
2023-05-10T23:53:18.722Z,4.93
2023-05-10T23:55:45.495Z,5.50
2023-05-10T23:58:12.477Z,5.28
